Time,TemperatureF,DewpointF,PressureIn,WindDirection,WindDirectionDegrees,WindSpeedMPH,WindSpeedGustMPH,Humidity,HourlyPrecipIn,Conditions,Clouds,dailyrainin,SoftwareType,DateUTC
2013-03-19 00:05:00,29.3,29.0,30.22,East,81,0.0,0.0,97,0.00,,,0.00,weatherlink.com 1.10,2013-03-19 07:05:00,
2013-03-19 00:20:00,29.1,28.0,30.21,East,80,0.0,0.0,97,0.00,,,0.00,weatherlink.com 1.10,2013-03-19 07:20:00,
2013-03-19 00:35:00,28.9,28.0,30.21,East,80,0.0,0.0,97,0.00,,,0.00,weatherlink.com 1.10,2013-03-19 07:35:00,
2013-03-19 00:50:00,28.8,28.0,30.20,East,80,0.0,0.0,98,0.00,,,0.00,weatherlink.com 1.10,2013-03-19 07:50:00,
2013-03-19 01:05:00,28.6,28.0,30.20,East,80,0.0,0.0,98,0.00,,,0.00,weatherlink.com 1.10,2013-03-19 08:05:00,
2013-03-19 01:20:00,28.5,28.0,30.19,East,80,0.0,0.0,98,0.00,,,0.00,weatherlink.com 1.10,2013-03-19 08:20:00,
2013-03-19 01:35:00,28.8,28.0,30.18,East,80,0.0,0.0,98,0.00,,,0.00,weatherlink.com 1.10,2013-03-19 08:35:00,
2013-03-19 01:50:00,29.1,29.0,30.18,East,80,0.0,0.0,98,0.00,,,0.00,weatherlink.com 1.10,2013-03-19 08:50:00,
2013-03-19 02:05:00,29.2,29.0,30.17,East,80,0.0,0.0,98,0.00,,,0.00,weatherlink.com 1.10,2013-03-19 09:05:00,
2013-03-19 02:20:00,29.3,29.0,30.18,East,80,0.0,0.0,98,0.00,,,0.00,weatherlink.com 1.10,2013-03-19 09:20:00,
2013-03-19 02:35:00,29.6,29.0,30.17,East,80,0.0,0.0,98,0.00,,,0.00,weatherlink.com 1.10,2013-03-19 09:35:00,
2013-03-19 02:50:00,29.6,29.0,30.16,East,79,0.0,0.0,98,0.00,,,0.00,weatherlink.com 1.10,2013-03-19 09:50:00,
2013-03-19 03:05:00,29.9,29.0,30.16,East,79,0.0,0.0,98,0.00,,,0.00,weatherlink.com 1.10,2013-03-19 10:05:00,
2013-03-19 03:20:00,29.8,29.0,30.16,East,79,0.0,0.0,98,0.00,,,0.00,weatherlink.com 1.10,2013-03-19 10:20:00,
2013-03-19 03:35:00,29.6,29.0,30.15,East,79,0.0,0.0,98,0.00,,,0.00,weatherlink.com 1.10,2013-03-19 10:35:00,
2013-03-19 03:50:00,29.9,29.0,30.14,East,80,0.0,0.0,98,0.00,,,0.00,weatherlink.com 1.10,2013-03-19 10:50:00,
2013-03-19 04:05:00,30.0,30.0,30.14,East,80,0.0,0.0,98,0.00,,,0.00,weatherlink.com 1.10,2013-03-19 11:05:00,
2013-03-19 04:20:00,30.0,30.0,30.13,WNW,288,0.0,0.0,98,0.00,,,0.00,weatherlink.com 1.10,2013-03-19 11:20:00,
2013-03-19 04:35:00,30.5,30.0,30.12,WNW,289,2.0,2.0,98,0.00,,,0.00,weatherlink.com 1.10,2013-03-19 11:35:00,
2013-03-19 04:50:00,30.7,30.0,30.12,ESE,106,0.0,0.0,98,0.00,,,0.00,weatherlink.com 1.10,2013-03-19 11:50:00,
2013-03-19 05:05:00,30.7,30.0,30.12,WNW,300,0.0,0.0,98,0.00,,,0.00,weatherlink.com 1.10,2013-03-19 12:05:00,
2013-03-19 05:20:00,30.6,30.0,30.11,East,96,0.0,2.0,98,0.00,,,0.00,weatherlink.com 1.10,2013-03-19 12:20:00,
2013-03-19 05:35:00,30.8,30.0,30.11,WNW,293,0.0,0.0,98,0.00,,,0.00,weatherlink.com 1.10,2013-03-19 12:35:00,
2013-03-19 05:50:00,30.9,30.0,30.10,East,86,0.0,0.0,98,0.00,,,0.00,weatherlink.com 1.10,2013-03-19 12:50:00,
2013-03-19 06:05:00,30.4,30.0,30.10,NW,324,0.0,0.0,97,0.00,,,0.00,weatherlink.com 1.10,2013-03-19 13:05:00,
2013-03-19 06:20:00,30.3,30.0,30.10,NW,323,0.0,0.0,97,0.00,,,0.00,weatherlink.com 1.10,2013-03-19 13:20:00,
2013-03-19 06:35:00,30.3,30.0,30.09,NW,304,0.0,2.0,98,0.00,,,0.00,weatherlink.com 1.10,2013-03-19 13:35:00,
2013-03-19 06:51:00,30.5,30.0,30.09,WNW,297,0.0,3.0,98,0.00,,,0.00,weatherlink.com 1.10,2013-03-19 13:51:00,
2013-03-19 07:06:00,30.5,30.0,30.09,NW,310,0.0,0.0,97,0.00,,,0.00,weatherlink.com 1.10,2013-03-19 14:06:00,
2013-03-19 07:21:00,30.6,30.0,30.08,East,83,0.0,0.0,98,0.00,,,0.00,weatherlink.com 1.10,2013-03-19 14:21:00,
2013-03-19 07:36:00,30.8,30.0,30.07,WNW,288,0.0,0.0,98,0.00,,,0.00,weatherlink.com 1.10,2013-03-19 14:36:00,
2013-03-19 08:06:00,31.3,31.0,30.07,WNW,286,0.0,0.0,97,0.00,,,0.00,weatherlink.com 1.10,2013-03-19 15:06:00,
2013-03-19 08:21:00,31.7,31.0,30.07,WNW,285,0.0,0.0,97,0.00,,,0.00,weatherlink.com 1.10,2013-03-19 15:21:00,
2013-03-19 08:51:00,32.5,32.0,30.07,WNW,285,0.0,0.0,97,0.00,,,0.00,weatherlink.com 1.10,2013-03-19 15:51:00,
2013-03-19 09:36:00,35.2,34.0,30.06,WNW,295,0.0,0.0,95,0.00,,,0.00,weatherlink.com 1.10,2013-03-19 16:36:00,
2013-03-19 09:51:00,36.1,35.0,30.05,WNW,284,0.0,0.0,94,0.00,,,0.00,weatherlink.com 1.10,2013-03-19 16:51:00,
2013-03-19 10:06:00,36.9,34.0,30.05,WNW,286,0.0,0.0,90,0.00,,,0.00,weatherlink.com 1.10,2013-03-19 17:06:00,
2013-03-19 10:21:00,38.3,36.0,30.05,SW,224,0.0,0.0,90,0.00,,,0.00,weatherlink.com 1.10,2013-03-19 17:21:00,
2013-03-19 10:36:00,40.0,36.0,30.04,WSW,257,0.0,0.0,85,0.00,,,0.00,weatherlink.com 1.10,2013-03-19 17:36:00,
2013-03-19 10:51:00,41.3,37.0,30.04,WSW,237,0.0,0.0,83,0.00,,,0.00,weatherlink.com 1.10,2013-03-19 17:51:00,
2013-03-19 11:06:00,41.7,36.0,30.04,SW,227,0.0,0.0,81,0.00,,,0.00,weatherlink.com 1.10,2013-03-19 18:06:00,
2013-03-19 11:21:00,42.4,37.0,30.03,North,356,0.0,0.0,80,0.00,,,0.00,weatherlink.com 1.10,2013-03-19 18:21:00,
2013-03-19 11:36:00,43.4,37.0,30.03,SSW,213,0.0,0.0,78,0.00,,,0.00,weatherlink.com 1.10,2013-03-19 18:36:00,
2013-03-19 11:52:00,44.8,38.0,30.02,North,6,0.0,0.0,76,0.00,,,0.00,weatherlink.com 1.10,2013-03-19 18:52:00,
2013-03-19 12:07:00,45.3,37.0,30.01,SW,221,0.0,0.0,72,0.00,,,0.00,weatherlink.com 1.10,2013-03-19 19:07:00,
2013-03-19 12:22:00,45.5,38.0,30.00,WSW,248,0.0,2.0,74,0.00,,,0.00,weatherlink.com 1.10,2013-03-19 19:22:00,
2013-03-19 12:37:00,46.1,37.0,30.00,SW,233,0.0,0.0,71,0.00,,,0.00,weatherlink.com 1.10,2013-03-19 19:37:00,
2013-03-19 12:52:00,45.9,37.0,29.99,SW,219,0.0,4.0,71,0.00,,,0.00,weatherlink.com 1.10,2013-03-19 19:52:00,
2013-03-19 13:07:00,46.3,37.0,29.98,South,172,0.0,0.0,70,0.00,,,0.00,weatherlink.com 1.10,2013-03-19 20:07:00,
2013-03-19 13:22:00,46.8,37.0,29.98,West,264,0.0,0.0,69,0.00,,,0.00,weatherlink.com 1.10,2013-03-19 20:22:00,
2013-03-19 13:37:00,47.1,38.0,29.96,WSW,257,0.0,0.0,71,0.00,,,0.00,weatherlink.com 1.10,2013-03-19 20:37:00,
2013-03-19 13:52:00,47.8,38.0,29.96,SW,215,0.0,2.0,69,0.00,,,0.00,weatherlink.com 1.10,2013-03-19 20:52:00,
2013-03-19 14:07:00,47.8,40.0,29.96,SSW,213,0.0,4.0,73,0.00,,,0.00,weatherlink.com 1.10,2013-03-19 21:07:00,
2013-03-19 14:22:00,46.2,40.0,29.95,East,81,0.0,1.0,80,0.00,,,0.00,weatherlink.com 1.10,2013-03-19 21:22:00,
2013-03-19 14:37:00,45.8,42.0,29.94,East,81,0.0,0.0,87,0.00,,,0.00,weatherlink.com 1.10,2013-03-19 21:37:00,
2013-03-19 14:52:00,45.3,43.0,29.93,East,81,0.0,0.0,90,0.01,,,0.01,weatherlink.com 1.10,2013-03-19 21:52:00,
2013-03-19 15:07:00,45.0,42.0,29.93,WSW,254,0.0,0.0,90,0.01,,,0.01,weatherlink.com 1.10,2013-03-19 22:07:00,
2013-03-19 15:22:00,44.9,43.0,29.92,ENE,63,0.0,0.0,91,0.02,,,0.02,weatherlink.com 1.10,2013-03-19 22:22:00,
2013-03-19 15:37:00,44.9,43.0,29.93,ENE,63,0.0,0.0,91,0.03,,,0.03,weatherlink.com 1.10,2013-03-19 22:37:00,
2013-03-19 16:07:00,45.0,43.0,29.90,SW,233,0.0,0.0,93,0.03,,,0.04,weatherlink.com 1.10,2013-03-19 23:07:00,
2013-03-19 16:22:00,45.1,44.0,29.90,SW,233,0.0,0.0,94,0.03,,,0.05,weatherlink.com 1.10,2013-03-19 23:22:00,
2013-03-19 16:37:00,44.6,44.0,29.89,SW,233,0.0,0.0,96,0.04,,,0.07,weatherlink.com 1.10,2013-03-19 23:37:00,
2013-03-19 16:52:00,44.7,44.0,29.88,SW,233,0.0,0.0,96,0.04,,,0.08,weatherlink.com 1.10,2013-03-19 23:52:00,
2013-03-19 17:08:00,44.8,44.0,29.87,SW,233,0.0,0.0,96,0.04,,,0.08,weatherlink.com 1.10,2013-03-20 00:08:00,
2013-03-19 17:22:00,44.8,44.0,29.86,SW,233,0.0,0.0,96,0.04,,,0.09,weatherlink.com 1.10,2013-03-20 00:22:00,
2013-03-19 17:37:00,44.4,43.0,29.85,SW,233,0.0,0.0,96,0.02,,,0.09,weatherlink.com 1.10,2013-03-20 00:37:00,
2013-03-19 17:52:00,44.2,43.0,29.84,NW,307,0.0,0.0,96,0.04,,,0.12,weatherlink.com 1.10,2013-03-20 00:52:00,
2013-03-19 18:07:00,43.9,43.0,29.83,North,352,0.0,0.0,96,0.06,,,0.14,weatherlink.com 1.10,2013-03-20 01:07:00,
2013-03-19 18:22:00,43.7,43.0,29.82,NNW,330,0.0,0.0,97,0.07,,,0.16,weatherlink.com 1.10,2013-03-20 01:22:00,
2013-03-19 18:38:00,43.6,43.0,29.80,North,352,0.0,0.0,97,0.09,,,0.18,weatherlink.com 1.10,2013-03-20 01:38:00,
2013-03-19 18:53:00,43.6,43.0,29.78,ENE,66,0.0,0.0,97,0.07,,,0.19,weatherlink.com 1.10,2013-03-20 01:53:00,
2013-03-19 19:08:00,43.7,43.0,29.77,NE,39,0.0,0.0,98,0.08,,,0.22,weatherlink.com 1.10,2013-03-20 02:08:00,
2013-03-19 19:23:00,43.7,43.0,29.76,NE,37,0.0,0.0,98,0.06,,,0.22,weatherlink.com 1.10,2013-03-20 02:23:00,
2013-03-19 19:38:00,43.7,43.0,29.75,WNW,302,0.0,0.0,98,0.04,,,0.22,weatherlink.com 1.10,2013-03-20 02:38:00,
2013-03-19 19:53:00,43.6,43.0,29.75,WNW,302,0.0,0.0,98,0.03,,,0.22,weatherlink.com 1.10,2013-03-20 02:53:00,
2013-03-19 20:08:00,43.5,43.0,29.73,North,2,0.0,0.0,98,0.00,,,0.22,weatherlink.com 1.10,2013-03-20 03:08:00,
2013-03-19 20:23:00,43.3,43.0,29.72,North,2,0.0,0.0,98,0.00,,,0.22,weatherlink.com 1.10,2013-03-20 03:23:00,
2013-03-19 20:38:00,43.0,43.0,29.71,NE,48,0.0,0.0,98,0.00,,,0.22,weatherlink.com 1.10,2013-03-20 03:38:00,
2013-03-19 20:53:00,42.8,42.0,29.70,NE,48,0.0,0.0,98,0.00,,,0.22,weatherlink.com 1.10,2013-03-20 03:53:00,
2013-03-19 21:08:00,42.8,42.0,29.70,NE,48,0.0,0.0,98,0.00,,,0.22,weatherlink.com 1.10,2013-03-20 04:08:00,
2013-03-19 21:23:00,42.7,42.0,29.69,NE,48,0.0,0.0,98,0.01,,,0.23,weatherlink.com 1.10,2013-03-20 04:23:00,
2013-03-19 21:38:00,42.7,42.0,29.70,NE,48,0.0,0.0,98,0.01,,,0.23,weatherlink.com 1.10,2013-03-20 04:38:00,
2013-03-19 22:08:00,42.6,42.0,29.68,NE,48,0.0,0.0,98,0.03,,,0.25,weatherlink.com 1.10,2013-03-20 05:08:00,
2013-03-19 22:23:00,42.6,42.0,29.67,NE,49,0.0,0.0,98,0.05,,,0.28,weatherlink.com 1.10,2013-03-20 05:23:00,
2013-03-19 22:38:00,42.6,42.0,29.66,NE,49,0.0,0.0,98,0.07,,,0.30,weatherlink.com 1.10,2013-03-20 05:38:00,
2013-03-19 22:53:00,42.7,42.0,29.65,WSW,245,0.0,1.0,98,0.08,,,0.32,weatherlink.com 1.10,2013-03-20 05:53:00,